Time;durP1;ratioP1;P1;durP2;ratioP2;P2;SDS_P1;SDS_P2;PMS_P1;PMS_P2;Temp;Humidity;BMP_temperature;BMP_pressure;BME280_temperature;BME280_humidity;BME280_pressure;Samples;Min_cycle;Max_cycle;Signal;HPM_P1;HPM_P2
2023/07/20 00:01:15;;;;;;;4.10;3.03;;;21.10;57.20;;;;;;5031593;28;20319;-50
2023/07/20 00:03:54;;;;;;;4.20;3.17;;;21.10;57.30;;;;;;5035664;28;20061;-50
2023/07/20 00:06:30;;;;;;;3.53;3.17;;;21.10;57.40;;;;;;5035560;28;20569;-49
2023/07/20 00:08:58;;;;;;;4.97;3.08;;;21.10;57.60;;;;;;5033856;28;20156;-50
2023/07/20 00:11:27;;;;;;;4.10;2.70;;;21.10;57.40;;;;;;5041882;28;20082;-49
2023/07/20 00:13:53;;;;;;;4.75;2.72;;;21.10;57.50;;;;;;5043591;28;20072;-49
2023/07/20 00:16:22;;;;;;;3.53;2.85;;;21.20;57.40;;;;;;5040488;28;20476;-47
2023/07/20 00:18:49;;;;;;;3.38;2.50;;;21.10;57.40;;;;;;5042508;28;20054;-50
2023/07/20 00:21:16;;;;;;;3.55;2.88;;;21.20;57.40;;;;;;5042771;28;20068;-46
2023/07/20 00:23:45;;;;;;;3.30;2.72;;;21.20;57.50;;;;;;5041334;28;20120;-47
2023/07/20 00:26:13;;;;;;;3.00;2.80;;;21.10;57.50;;;;;;5042664;28;20055;-50
2023/07/20 00:28:46;;;;;;;3.83;2.42;;;21.20;57.50;;;;;;5041396;28;20052;-48
2023/07/20 00:31:14;;;;;;;3.25;2.92;;;21.20;57.60;;;;;;5042382;28;20140;-47
2023/07/20 00:33:43;;;;;;;3.33;2.65;;;21.20;57.60;;;;;;5041664;28;20088;-48
2023/07/20 00:36:10;;;;;;;4.60;2.55;;;21.20;57.90;;;;;;5024771;28;20396;-49
2023/07/20 00:38:38;;;;;;;2.72;2.53;;;21.20;57.90;;;;;;5040265;28;20069;-46
2023/07/20 00:41:05;;;;;;;2.78;2.40;;;21.10;58.10;;;;;;5042800;28;20037;-46
2023/07/20 00:43:33;;;;;;;4.88;2.92;;;21.10;58.30;;;;;;5036509;28;20572;-45
2023/07/20 00:46:02;;;;;;;5.38;2.47;;;21.10;58.40;;;;;;5021421;28;20037;-47
2023/07/20 00:48:30;;;;;;;4.07;2.22;;;21.10;58.60;;;;;;5012833;28;20077;-48
2023/07/20 00:51:01;;;;;;;4.10;2.28;;;21.10;58.70;;;;;;5010647;28;20041;-47
2023/07/20 00:53:28;;;;;;;3.95;2.28;;;21.10;59.00;;;;;;5029068;28;20048;-48
2023/07/20 00:55:58;;;;;;;3.92;2.80;;;21.10;58.90;;;;;;5023859;28;20515;-48
2023/07/20 00:58:25;;;;;;;3.55;2.10;;;21.10;59.20;;;;;;5039406;28;20045;-48
2023/07/20 01:00:54;;;;;;;3.05;2.03;;;21.10;59.00;;;;;;5022749;28;20504;-48
2023/07/20 01:03:21;;;;;;;3.63;3.17;;;21.10;59.00;;;;;;5041061;28;20049;-48
2023/07/20 01:06:27;;;;;;;4.22;2.65;;;21.10;59.10;;;;;;5040175;28;20124;-47
2023/07/20 01:09:22;;;;;;;3.72;2.55;;;21.10;59.70;;;;;;5014749;28;20055;-50
2023/07/20 01:11:54;;;;;;;3.75;2.30;;;21.00;59.60;;;;;;5038239;28;20124;-47
2023/07/20 01:14:25;;;;;;;2.63;2.42;;;21.00;59.50;;;;;;5021657;28;20037;-47
2023/07/20 01:16:54;;;;;;;2.72;2.35;;;20.90;59.30;;;;;;5039198;28;20442;-46
2023/07/20 01:19:21;;;;;;;4.68;2.85;;;20.90;59.40;;;;;;5040046;28;20128;-49
2023/07/20 01:21:56;;;;;;;3.00;2.35;;;20.90;59.50;;;;;;5039217;28;20041;-47
2023/07/20 01:25:05;;;;;;;3.47;2.97;;;20.80;59.90;;;;;;5020399;28;20045;-50
2023/07/20 01:27:56;;;;;;;4.43;2.55;;;20.80;60.20;;;;;;5032490;28;20041;-45
2023/07/20 01:31:03;;;;;;;2.50;2.30;;;20.80;60.00;;;;;;5011508;28;20894;-46
2023/07/20 01:33:32;;;;;;;4.05;2.38;;;20.80;60.20;;;;;;4985631;28;20098;-47
2023/07/20 01:36:06;;;;;;;2.83;2.30;;;20.70;59.70;;;;;;5039598;28;20033;-49
2023/07/20 01:38:32;;;;;;;2.97;2.15;;;20.60;59.80;;;;;;5038035;28;20699;-49
2023/07/20 01:41:02;;;;;;;2.72;2.20;;;20.60;60.00;;;;;;5036486;28;20033;-45
2023/07/20 01:43:33;;;;;;;3.80;2.65;;;20.60;60.20;;;;;;5037391;28;20046;-50
2023/07/20 01:46:01;;;;;;;4.03;3.10;;;20.60;60.20;;;;;;5021834;28;20110;-47
2023/07/20 01:48:28;;;;;;;3.50;2.90;;;20.60;60.30;;;;;;5020233;28;20392;-49
2023/07/20 01:50:57;;;;;;;3.08;2.75;;;20.60;60.50;;;;;;5033098;28;20059;-48
2023/07/20 01:53:25;;;;;;;3.42;2.80;;;20.60;60.70;;;;;;5038240;28;20449;-47
2023/07/20 01:55:54;;;;;;;2.72;2.35;;;20.60;60.50;;;;;;5036912;28;20045;-47
2023/07/20 01:58:24;;;;;;;3.80;2.20;;;20.50;60.60;;;;;;5036517;28;20037;-46
2023/07/20 02:00:51;;;;;;;3.08;2.42;;;20.60;60.90;;;;;;5034971;28;20521;-46
2023/07/20 02:03:26;;;;;;;3.08;2.60;;;20.60;60.70;;;;;;5038308;28;20040;-47
2023/07/20 02:05:56;;;;;;;3.97;2.50;;;20.50;60.70;;;;;;5037686;28;20628;-49
2023/07/20 02:08:25;;;;;;;4.45;2.40;;;20.50;60.70;;;;;;5019517;28;20477;-46
2023/07/20 02:10:57;;;;;;;3.40;2.78;;;20.50;60.80;;;;;;5036311;28;20561;-49
2023/07/20 02:13:24;;;;;;;3.97;2.63;;;20.50;60.80;;;;;;5037987;28;20517;-46
2023/07/20 02:15:55;;;;;;;5.80;2.85;;;20.50;60.90;;;;;;5034879;28;20124;-47
2023/07/20 02:18:24;;;;;;;6.03;3.40;;;20.40;61.00;;;;;;5019904;28;20045;-47
2023/07/20 02:20:54;;;;;;;3.08;2.72;;;20.50;61.00;;;;;;5037080;28;20041;-48
2023/07/20 02:23:21;;;;;;;4.15;2.72;;;20.40;61.20;;;;;;5037475;28;20107;-49
2023/07/20 02:25:47;;;;;;;2.72;2.40;;;20.40;61.20;;;;;;5034844;28;20057;-46
2023/07/20 02:28:22;;;;;;;3.63;2.58;;;20.40;61.20;;;;;;5032304;28;20037;-47
2023/07/20 02:30:53;;;;;;;4.15;3.25;;;20.30;61.20;;;;;;5033685;28;20068;-50
2023/07/20 02:33:21;;;;;;;3.53;2.67;;;20.30;61.20;;;;;;5072905;22;20072;-51
2023/07/20 02:35:55;;;;;;;4.03;2.88;;;20.30;61.30;;;;;;5049139;28;20068;-48
2023/07/20 02:38:24;;;;;;;3.83;2.75;;;20.30;61.60;;;;;;5051821;28;20044;-51
2023/07/20 02:40:51;;;;;;;3.47;2.55;;;20.30;61.80;;;;;;5051966;28;20044;-50
2023/07/20 02:43:18;;;;;;;3.40;2.50;;;20.30;61.70;;;;;;5047955;28;20041;-51
2023/07/20 02:45:49;;;;;;;4.25;2.85;;;20.30;61.70;;;;;;5050118;28;20049;-50
2023/07/20 02:48:15;;;;;;;4.25;3.83;;;20.30;61.80;;;;;;5051511;28;20064;-51
2023/07/20 02:50:44;;;;;;;4.18;2.55;;;20.30;61.90;;;;;;5051160;28;20111;-51
2023/07/20 02:53:13;;;;;;;3.03;2.80;;;20.30;62.10;;;;;;5035309;28;20684;-50
2023/07/20 02:55:43;;;;;;;3.17;2.88;;;20.30;61.80;;;;;;5039445;28;20052;-48
2023/07/20 02:58:12;;;;;;;3.67;2.58;;;20.30;61.90;;;;;;5051023;28;20061;-51
2023/07/20 03:00:39;;;;;;;4.07;3.15;;;20.30;62.00;;;;;;5034210;28;20098;-48
2023/07/20 03:03:09;;;;;;;4.20;2.67;;;20.30;62.10;;;;;;5040882;28;20037;-51
2023/07/20 03:05:41;;;;;;;5.30;2.83;;;20.30;62.20;;;;;;5044805;28;20418;-49
2023/07/20 03:08:10;;;;;;;6.93;3.33;;;20.30;62.40;;;;;;5051093;28;20554;-48
2023/07/20 03:10:42;;;;;;;3.05;2.70;;;20.30;62.20;;;;;;5043140;28;20052;-48
2023/07/20 03:13:12;;;;;;;;;;;20.30;62.70;;;;;;5051187;28;20098;-51
2023/07/20 03:15:42;;;;;;;2.47;2.28;;;20.40;62.60;;;;;;5034481;28;20309;-49
2023/07/20 03:18:08;;;;;;;3.75;2.55;;;20.40;61.80;;;;;;5054274;28;20499;-51
2023/07/20 03:20:36;;;;;;;3.40;3.00;;;20.40;62.10;;;;;;5049935;28;20119;-49
2023/07/20 03:23:03;;;;;;;3.75;2.53;;;20.40;62.20;;;;;;5052355;28;20041;-48
2023/07/20 03:25:33;;;;;;;3.85;2.63;;;20.40;62.30;;;;;;5030339;28;20071;-48
2023/07/20 03:28:00;;;;;;;5.45;2.72;;;20.40;62.50;;;;;;5029726;28;20046;-49
2023/07/20 03:30:29;;;;;;;5.60;3.50;;;20.40;62.40;;;;;;5032028;28;20049;-48
2023/07/20 03:32:56;;;;;;;3.78;2.60;;;20.40;62.50;;;;;;5036988;28;20072;-48
2023/07/20 03:35:27;;;;;;;4.07;2.70;;;20.40;62.60;;;;;;5050500;28;20518;-48
2023/07/20 03:37:54;;;;;;;3.60;2.85;;;20.40;62.60;;;;;;5049690;28;20044;-52
2023/07/20 03:40:24;;;;;;;4.68;2.88;;;20.40;62.50;;;;;;5046190;28;20083;-49
2023/07/20 03:42:56;;;;;;;3.33;2.83;;;20.40;62.80;;;;;;5036651;28;20045;-48
2023/07/20 03:45:23;;;;;;;3.28;2.85;;;20.50;62.80;;;;;;5050693;28;20076;-51
2023/07/20 03:47:53;;;;;;;3.42;2.92;;;20.40;62.50;;;;;;5049085;28;20107;-49
2023/07/20 03:50:25;;;;;;;2.97;2.67;;;20.50;62.60;;;;;;5032421;28;20450;-50
2023/07/20 03:52:52;;;;;;;3.47;2.95;;;20.40;62.60;;;;;;5051783;28;20474;-52
2023/07/20 03:55:18;;;;;;;5.20;3.28;;;20.40;62.60;;;;;;5049794;28;20072;-52
2023/07/20 03:57:50;;;;;;;5.20;3.72;;;20.50;62.80;;;;;;5033365;28;20111;-48
2023/07/20 04:00:21;;;;;;;7.80;4.30;;;20.50;62.80;;;;;;5046617;28;20041;-49
2023/07/20 04:02:51;;;;;;;4.30;3.08;;;20.50;62.90;;;;;;5037185;28;20414;-52
2023/07/20 04:05:19;;;;;;;4.07;3.38;;;20.40;62.80;;;;;;5030394;28;20056;-49
2023/07/20 04:07:48;;;;;;;5.25;4.25;;;20.50;62.90;;;;;;5046862;28;20518;-49
2023/07/20 04:10:18;;;;;;;7.68;3.80;;;20.50;63.00;;;;;;5032063;28;20617;-49
2023/07/20 04:12:51;;;;;;;5.32;3.47;;;20.50;63.20;;;;;;5052055;28;20744;-49
2023/07/20 04:15:22;;;;;;;6.40;4.88;;;20.50;63.20;;;;;;5044923;28;20056;-52
2023/07/20 04:17:49;;;;;;;8.13;5.32;;;20.50;63.40;;;;;;5046848;28;20033;-51
2023/07/20 04:20:17;;;;;;;7.22;5.95;;;20.50;63.20;;;;;;5049070;28;20435;-51
2023/07/20 04:22:47;;;;;;;9.35;7.22;;;20.50;63.20;;;;;;5033301;28;20384;-51
2023/07/20 04:25:18;;;;;;;8.95;7.75;;;20.50;63.10;;;;;;5033431;28;20048;-52
2023/07/20 04:27:48;;;;;;;9.18;7.72;;;20.60;63.20;;;;;;5042444;28;20045;-52
2023/07/20 04:30:22;;;;;;;10.63;7.82;;;20.60;63.00;;;;;;5033637;28;20099;-51
2023/07/20 04:32:51;;;;;;;8.43;7.18;;;20.50;62.80;;;;;;5052836;28;20231;-52
2023/07/20 04:35:45;;;;;;;9.32;7.55;;;20.50;62.80;;;;;;5031887;28;20037;-51
2023/07/20 04:38:17;;;;;;;9.57;7.30;;;20.50;63.10;;;;;;5031459;28;20049;-51
2023/07/20 04:40:51;;;;;;;10.38;8.00;;;20.50;62.60;;;;;;5042193;28;20059;-50
2023/07/20 04:43:18;;;;;;;9.85;7.65;;;20.60;62.90;;;;;;5049708;28;20037;-53
2023/07/20 04:45:50;;;;;;;7.88;6.35;;;20.60;62.80;;;;;;5046566;28;20045;-48
2023/07/20 04:48:22;;;;;;;9.77;7.18;;;20.50;62.90;;;;;;5029578;28;20511;-54
2023/07/20 04:50:51;;;;;;;9.25;7.25;;;20.50;63.00;;;;;;5030989;28;20048;-47
2023/07/20 04:53:21;;;;;;;8.75;6.53;;;20.50;63.10;;;;;;5014951;28;20495;-50
2023/07/20 04:55:51;;;;;;;10.52;7.07;;;20.50;63.10;;;;;;5048145;28;20041;-52
2023/07/20 04:58:22;;;;;;;8.93;7.28;;;20.60;63.10;;;;;;5043199;28;20033;-51
2023/07/20 05:00:50;;;;;;;9.23;7.03;;;20.60;63.00;;;;;;5046214;28;20045;-53
2023/07/20 05:03:17;;;;;;;9.23;7.57;;;20.60;63.20;;;;;;5031302;28;20045;-53
2023/07/20 05:05:46;;;;;;;9.23;7.35;;;20.60;63.20;;;;;;5047464;28;20045;-49
2023/07/20 05:08:16;;;;;;;9.73;7.85;;;20.60;63.20;;;;;;5048780;28;20037;-49
2023/07/20 05:10:44;;;;;;;9.85;7.72;;;20.60;63.10;;;;;;5047756;28;20698;-49
2023/07/20 05:13:10;;;;;;;9.95;7.53;;;20.60;63.10;;;;;;5048195;28;20469;-48
2023/07/20 05:15:37;;;;;;;10.98;8.98;;;20.60;63.20;;;;;;5030758;28;20045;-53
2023/07/20 05:18:06;;;;;;;11.35;7.60;;;20.60;63.20;;;;;;5031503;28;20052;-52
2023/07/20 05:20:33;;;;;;;10.00;8.10;;;20.60;63.20;;;;;;5047114;28;20060;-52
2023/07/20 05:23:01;;;;;;;10.20;7.60;;;20.70;63.30;;;;;;5048059;28;20080;-49
2023/07/20 05:25:28;;;;;;;9.70;8.02;;;20.70;63.40;;;;;;5042858;28;20506;-54
2023/07/20 05:27:57;;;;;;;9.88;8.45;;;20.70;63.40;;;;;;5045229;28;20049;-48
2023/07/20 05:30:24;;;;;;;10.63;8.40;;;20.70;63.40;;;;;;5050106;28;20121;-52
2023/07/20 05:32:52;;;;;;;9.90;7.97;;;20.70;63.30;;;;;;5049166;28;20106;-49
2023/07/20 05:35:18;;;;;;;10.68;7.57;;;20.80;63.30;;;;;;5047503;28;20049;-51
2023/07/20 05:37:46;;;;;;;10.60;8.38;;;20.80;63.10;;;;;;5047291;28;20045;-49
2023/07/20 05:40:14;;;;;;;9.00;8.10;;;20.80;63.10;;;;;;5043381;28;20041;-50
2023/07/20 05:42:41;;;;;;;9.65;7.55;;;20.80;63.00;;;;;;5048742;28;20037;-50
2023/07/20 05:45:08;;;;;;;9.98;7.85;;;20.90;63.10;;;;;;5049761;28;20124;-52
2023/07/20 05:47:34;;;;;;;8.15;7.05;;;20.90;62.80;;;;;;5040592;28;20069;-51
2023/07/20 05:50:02;;;;;;;8.70;7.57;;;20.90;62.60;;;;;;5047068;28;20083;-49
2023/07/20 05:52:28;;;;;;;8.30;7.40;;;20.90;62.50;;;;;;5030666;28;20690;-51
2023/07/20 05:54:55;;;;;;;12.70;8.23;;;21.00;62.60;;;;;;5040953;28;21301;-51
2023/07/20 05:57:25;;;;;;;12.85;8.15;;;21.00;62.70;;;;;;5044861;28;20506;-51
2023/07/20 05:59:51;;;;;;;8.50;7.60;;;21.00;62.60;;;;;;5045303;28;20079;-52
2023/07/20 06:02:18;;;;;;;9.98;7.20;;;21.00;62.60;;;;;;5049196;28;20045;-50
2023/07/20 06:04:45;;;;;;;6.35;5.75;;;21.00;62.00;;;;;;5048133;28;20502;-49
2023/07/20 06:07:12;;;;;;;6.88;6.25;;;21.00;61.90;;;;;;5046205;28;20072;-52
2023/07/20 06:09:39;;;;;;;10.18;6.93;;;21.10;62.00;;;;;;5049683;28;20080;-52
2023/07/20 06:12:06;;;;;;;8.15;6.53;;;21.10;62.00;;;;;;5047336;28;20473;-48
2023/07/20 06:14:33;;;;;;;7.15;6.45;;;21.20;61.90;;;;;;5050893;28;20076;-48
2023/07/20 06:17:00;;;;;;;7.40;6.70;;;21.30;61.60;;;;;;5052846;28;20569;-51
2023/07/20 06:19:29;;;;;;;6.22;5.72;;;21.30;61.40;;;;;;5051747;28;20037;-51
2023/07/20 06:21:57;;;;;;;9.10;6.10;;;21.40;61.20;;;;;;5051842;28;20068;-49
2023/07/20 06:24:24;;;;;;;7.43;6.15;;;21.50;61.20;;;;;;5045213;28;20080;-48
2023/07/20 06:26:51;;;;;;;5.20;4.70;;;21.70;61.10;;;;;;5051472;28;20114;-54
2023/07/20 06:29:17;;;;;;;4.97;4.50;;;21.80;60.50;;;;;;5047507;28;20128;-49
2023/07/20 06:31:44;;;;;;;5.28;4.78;;;21.80;59.90;;;;;;5056447;28;20046;-53
2023/07/20 06:34:11;;;;;;;5.93;5.32;;;21.90;59.50;;;;;;5051560;28;20049;-53
2023/07/20 06:36:38;;;;;;;7.30;6.60;;;22.00;59.60;;;;;;5051676;28;20045;-51
2023/07/20 06:39:05;;;;;;;6.93;5.40;;;22.00;59.10;;;;;;5051865;28;20125;-48
2023/07/20 06:41:34;;;;;;;6.57;5.88;;;22.00;58.60;;;;;;5053202;28;20025;-49
2023/07/20 06:44:05;;;;;;;5.22;4.82;;;22.00;58.40;;;;;;5053060;28;20056;-49
2023/07/20 06:46:31;;;;;;;6.97;6.38;;;22.00;58.10;;;;;;5051275;28;20044;-49
2023/07/20 06:48:58;;;;;;;5.10;4.70;;;22.00;58.20;;;;;;5049713;28;20507;-51
2023/07/20 06:51:27;;;;;;;6.93;5.38;;;21.90;58.00;;;;;;5052653;28;20106;-49
2023/07/20 06:53:54;;;;;;;6.40;5.03;;;21.90;58.10;;;;;;5051081;28;20079;-53
2023/07/20 06:56:21;;;;;;;5.90;4.72;;;21.80;58.10;;;;;;5034298;28;20045;-52
2023/07/20 06:58:51;;;;;;;4.85;4.45;;;21.80;58.40;;;;;;5049062;28;20499;-50
2023/07/20 07:01:18;;;;;;;3.92;3.60;;;21.80;58.30;;;;;;5054711;28;20130;-50
2023/07/20 07:03:45;;;;;;;5.30;4.07;;;21.80;58.20;;;;;;5051159;28;20043;-49
2023/07/20 07:06:12;;;;;;;4.45;4.05;;;21.80;58.00;;;;;;5052143;28;20072;-50
2023/07/20 07:08:39;;;;;;;4.72;4.32;;;21.80;57.90;;;;;;5051184;28;20464;-52
2023/07/20 07:11:06;;;;;;;5.95;4.05;;;21.80;58.00;;;;;;5051964;28;20112;-53
2023/07/20 07:13:32;;;;;;;5.03;4.40;;;21.70;58.60;;;;;;5047696;28;20041;-51
2023/07/20 07:15:59;;;;;;;5.95;5.22;;;21.70;58.70;;;;;;5052690;28;20102;-52
2023/07/20 07:18:26;;;;;;;7.20;4.75;;;21.70;58.60;;;;;;5051202;28;20037;-48
2023/07/20 07:20:53;;;;;;;4.97;4.57;;;21.70;58.50;;;;;;5050716;28;20049;-53
2023/07/20 07:23:20;;;;;;;5.90;5.10;;;21.70;58.50;;;;;;5050431;28;20494;-53
2023/07/20 07:25:47;;;;;;;6.28;5.68;;;21.70;58.50;;;;;;5049556;28;20087;-49
2023/07/20 07:28:14;;;;;;;6.05;4.93;;;21.70;58.30;;;;;;5046882;28;20064;-52
2023/07/20 07:30:41;;;;;;;3.80;3.50;;;21.70;58.30;;;;;;5053422;28;20040;-52
2023/07/20 07:33:09;;;;;;;4.10;3.10;;;21.70;58.00;;;;;;5051175;28;20103;-52
2023/07/20 07:35:36;;;;;;;4.88;3.67;;;21.80;57.80;;;;;;5050618;28;20120;-49
2023/07/20 07:38:03;;;;;;;4.60;4.20;;;21.80;57.50;;;;;;5047419;28;20060;-49
2023/07/20 07:40:50;;;;;;;4.45;4.05;;;21.80;57.30;;;;;;5045717;28;20052;-52
2023/07/20 07:43:19;;;;;;;4.43;3.88;;;21.80;57.70;;;;;;5050333;28;20041;-53
2023/07/20 07:45:46;;;;;;;4.13;3.83;;;21.90;57.70;;;;;;5049158;28;20529;-48
2023/07/20 07:48:14;;;;;;;4.90;3.65;;;22.00;57.70;;;;;;5053083;28;20129;-52
2023/07/20 07:50:41;;;;;;;1.77;1.42;;;22.10;57.90;;;;;;5044242;28;20049;-48
2023/07/20 07:53:09;;;;;;;1.85;1.75;;;22.20;56.50;;;;;;5046028;28;20053;-51
2023/07/20 07:55:38;;;;;;;2.63;2.35;;;22.20;56.00;;;;;;5050315;28;20471;-48
2023/07/20 07:58:05;;;;;;;3.42;3.13;;;22.30;56.00;;;;;;5050410;28;20733;-52
2023/07/20 08:00:31;;;;;;;3.08;2.88;;;22.30;55.90;;;;;;5046872;28;20099;-51
2023/07/20 08:02:58;;;;;;;3.35;2.45;;;22.30;55.90;;;;;;5050275;28;20053;-52
2023/07/20 08:05:26;;;;;;;6.30;2.63;;;22.30;55.90;;;;;;5050285;28;20537;-48
2023/07/20 08:07:52;;;;;;;3.03;2.72;;;22.40;56.20;;;;;;5048705;28;20546;-52
2023/07/20 08:10:19;;;;;;;1.90;1.67;;;22.50;55.90;;;;;;5050899;28;20068;-52
2023/07/20 08:12:46;;;;;;;2.38;2.17;;;22.50;55.20;;;;;;5049973;28;20090;-52
2023/07/20 08:15:14;;;;;;;2.40;1.80;;;22.60;55.50;;;;;;5050394;28;20041;-51
2023/07/20 08:17:42;;;;;;;2.50;1.70;;;22.70;55.70;;;;;;5049376;28;20569;-52
2023/07/20 08:20:12;;;;;;;2.20;1.73;;;22.90;55.20;;;;;;5047553;28;20123;-52
2023/07/20 08:22:39;;;;;;;2.15;1.95;;;23.00;54.70;;;;;;5050319;28;20045;-52
2023/07/20 08:25:07;;;;;;;1.95;1.80;;;23.00;54.30;;;;;;5050156;28;20045;-51
2023/07/20 08:27:34;;;;;;;1.55;1.40;;;23.10;54.20;;;;;;5046363;28;20124;-50
2023/07/20 08:30:01;;;;;;;1.65;1.50;;;23.10;54.40;;;;;;5046106;28;20514;-49
2023/07/20 08:32:28;;;;;;;1.90;1.80;;;23.20;54.40;;;;;;5049668;28;20041;-51
2023/07/20 08:34:55;;;;;;;1.83;1.70;;;23.20;54.60;;;;;;5050185;28;20045;-52
2023/07/20 08:37:22;;;;;;;1.67;1.35;;;23.10;53.50;;;;;;5075140;22;20037;-47
2023/07/20 08:39:49;;;;;;;1.20;1.15;;;23.10;53.40;;;;;;5070108;28;20526;-50
2023/07/20 08:42:18;;;;;;;2.55;1.23;;;23.10;53.50;;;;;;5066370;28;20052;-48
2023/07/20 08:44:48;;;;;;;1.55;1.45;;;23.00;53.70;;;;;;5072003;28;20036;-48
2023/07/20 08:47:16;;;;;;;2.38;1.23;;;23.00;53.90;;;;;;5073021;28;20041;-50
2023/07/20 08:49:43;;;;;;;2.10;2.00;;;22.90;53.80;;;;;;5052938;28;20558;-49
2023/07/20 08:52:10;;;;;;;1.67;1.52;;;22.90;53.50;;;;;;5048093;28;20083;-49
2023/07/20 08:54:37;;;;;;;1.05;1.05;;;22.90;53.40;;;;;;5052278;28;20049;-50
2023/07/20 08:57:05;;;;;;;1.33;1.23;;;22.90;53.20;;;;;;5050243;28;20502;-51
2023/07/20 08:59:34;;;;;;;1.67;1.08;;;22.90;52.80;;;;;;5046462;28;20458;-49
2023/07/20 09:02:02;;;;;;;1.00;0.60;;;22.90;52.50;;;;;;5042791;28;20044;-49
2023/07/20 09:04:28;;;;;;;1.17;0.80;;;23.00;52.80;;;;;;5054357;28;20123;-49
2023/07/20 09:06:57;;;;;;;0.73;0.60;;;23.00;52.20;;;;;;5050096;28;20044;-48
2023/07/20 09:09:23;;;;;;;0.70;0.68;;;23.10;51.70;;;;;;5045567;28;20076;-47
2023/07/20 09:11:50;;;;;;;0.50;0.50;;;23.20;51.90;;;;;;5053548;28;20045;-49
2023/07/20 09:14:17;;;;;;;0.68;0.68;;;23.30;51.50;;;;;;5054142;28;20044;-50
2023/07/20 09:16:48;;;;;;;0.82;0.82;;;23.40;51.00;;;;;;5052595;28;20069;-47
2023/07/20 09:19:16;;;;;;;0.40;0.40;;;23.50;50.60;;;;;;5052129;28;20449;-50
2023/07/20 09:21:51;;;;;;;0.70;0.63;;;23.60;50.70;;;;;;5045893;28;20140;-51
2023/07/20 09:24:19;;;;;;;0.55;0.55;;;23.60;50.90;;;;;;5034560;28;20045;-50
2023/07/20 09:26:50;;;;;;;0.70;0.70;;;23.60;50.90;;;;;;5034937;28;20048;-51
2023/07/20 09:29:20;;;;;;;0.60;0.60;;;23.60;50.70;;;;;;5034245;28;20049;-50
2023/07/20 09:32:03;;;;;;;0.60;0.60;;;23.60;50.20;;;;;;5034183;28;20107;-50
2023/07/20 09:34:31;;;;;;;0.85;0.73;;;23.60;50.50;;;;;;5035163;28;20076;-50
2023/07/20 09:37:01;;;;;;;0.73;0.73;;;23.70;51.20;;;;;;5045732;28;20441;-49
2023/07/20 09:39:29;;;;;;;0.60;0.60;;;23.70;51.00;;;;;;5052501;28;20048;-51
2023/07/20 09:42:01;;;;;;;0.70;0.57;;;23.70;50.10;;;;;;5054467;28;20045;-47
2023/07/20 09:44:31;;;;;;;2.72;0.43;;;23.80;49.90;;;;;;5052910;28;20067;-48
2023/07/20 09:47:03;;;;;;;1.10;0.60;;;23.90;50.20;;;;;;5048411;28;20418;-51
2023/07/20 09:49:31;;;;;;;0.57;0.57;;;23.90;49.80;;;;;;5058798;28;20058;-47
2023/07/20 09:52:21;;;;;;;0.60;0.60;;;23.90;50.00;;;;;;5056128;28;20056;-50
2023/07/20 09:54:51;;;;;;;0.70;0.70;;;23.90;49.70;;;;;;5050892;28;20048;-48
2023/07/20 09:57:18;;;;;;;0.90;0.70;;;23.90;49.80;;;;;;5055264;28;20061;-49
2023/07/20 09:59:45;;;;;;;0.93;0.80;;;23.90;49.70;;;;;;5054358;28;20494;-50
2023/07/20 10:02:22;;;;;;;0.70;0.70;;;23.90;49.60;;;;;;5050275;28;20626;-50
2023/07/20 10:04:53;;;;;;;1.95;0.77;;;23.90;49.10;;;;;;5054548;28;20033;-49
2023/07/20 10:07:23;;;;;;;0.80;0.50;;;23.90;48.80;;;;;;5055507;28;20093;-48
2023/07/20 10:09:52;;;;;;;1.00;0.70;;;24.00;48.90;;;;;;5050882;28;20533;-48
2023/07/20 10:12:22;;;;;;;1.63;0.57;;;24.00;48.70;;;;;;5056893;28;20045;-48
2023/07/20 10:15:09;;;;;;;0.90;0.60;;;24.10;49.40;;;;;;5057712;28;20447;-51
2023/07/20 10:17:40;;;;;;;2.17;0.63;;;24.20;49.20;;;;;;5045517;28;20082;-50
2023/07/20 10:20:09;;;;;;;0.93;0.93;;;24.30;49.00;;;;;;5051430;28;20451;-52
2023/07/20 10:22:36;;;;;;;0.63;0.60;;;24.40;48.40;;;;;;5049187;28;20159;-51
2023/07/20 10:25:08;;;;;;;0.50;0.50;;;24.40;48.50;;;;;;5049652;28;20112;-48
2023/07/20 10:27:35;;;;;;;0.75;0.40;;;24.50;48.50;;;;;;5057197;28;20044;-50
2023/07/20 10:30:03;;;;;;;0.47;0.40;;;24.50;47.70;;;;;;5052307;28;20045;-49
2023/07/20 10:32:32;;;;;;;5.22;0.82;;;24.50;47.40;;;;;;5051481;28;20049;-50
2023/07/20 10:34:59;;;;;;;0.77;0.68;;;24.50;47.20;;;;;;5057336;28;20067;-49
2023/07/20 10:37:52;;;;;;;3.50;0.55;;;24.50;47.40;;;;;;5054091;28;20073;-51
2023/07/20 10:40:37;;;;;;;0.50;0.50;;;24.50;46.90;;;;;;5050882;28;20064;-50
2023/07/20 10:43:06;;;;;;;1.30;0.63;;;24.50;47.10;;;;;;5050906;28;20064;-50
2023/07/20 10:45:42;;;;;;;0.65;0.60;;;24.50;47.00;;;;;;5055473;28;20040;-47
2023/07/20 10:48:20;;;;;;;0.45;0.45;;;24.60;47.00;;;;;;5051537;28;20115;-51
2023/07/20 10:51:14;;;;;;;1.55;0.60;;;24.60;45.60;;;;;;5049224;28;20045;-50
2023/07/20 10:53:40;;;;;;;1.80;0.50;;;24.80;46.20;;;;;;5055670;28;20055;-49
2023/07/20 10:56:15;;;;;;;2.88;0.65;;;24.90;46.30;;;;;;5035575;28;20491;-48
2023/07/20 10:58:42;;;;;;;0.70;0.40;;;25.00;46.10;;;;;;5051413;28;20116;-46
2023/07/20 11:01:14;;;;;;;1.27;0.70;;;25.10;46.40;;;;;;5056125;28;20794;-49
2023/07/20 11:03:44;;;;;;;0.43;0.43;;;25.20;44.90;;;;;;5047973;28;20037;-48
2023/07/20 11:06:25;;;;;;;0.40;0.30;;;25.20;45.00;;;;;;5032925;28;20498;-51
2023/07/20 11:09:07;;;;;;;17.42;1.85;;;25.30;44.80;;;;;;5052924;28;20037;-50
2023/07/20 11:11:37;;;;;;;2.30;1.00;;;25.40;44.30;;;;;;5055290;28;20045;-51
2023/07/20 11:14:08;;;;;;;5.40;0.90;;;25.40;44.30;;;;;;5047357;28;20449;-51
2023/07/20 11:16:43;;;;;;;0.70;0.43;;;25.40;44.00;;;;;;5047995;28;20552;-50
2023/07/20 11:19:23;;;;;;;4.13;0.60;;;25.50;44.20;;;;;;5051715;28;20047;-52
2023/07/20 11:21:55;;;;;;;0.60;0.60;;;25.50;43.90;;;;;;5045421;28;20087;-52
2023/07/20 11:24:28;;;;;;;1.55;0.40;;;25.60;44.60;;;;;;5050924;28;20040;-52
2023/07/20 11:26:55;;;;;;;0.57;0.50;;;25.60;44.60;;;;;;5058811;28;20120;-51
2023/07/20 11:29:25;;;;;;;0.70;0.45;;;25.70;44.10;;;;;;5051702;28;20123;-52
2023/07/20 11:31:59;;;;;;;2.33;0.60;;;25.80;43.80;;;;;;5053189;28;20501;-51
2023/07/20 11:34:27;;;;;;;0.70;0.47;;;25.80;43.80;;;;;;5047759;28;20064;-51
2023/07/20 11:36:54;;;;;;;0.43;0.40;;;25.80;42.80;;;;;;5050279;28;20451;-51
2023/07/20 11:39:25;;;;;;;1.58;0.50;;;25.80;42.50;;;;;;5050941;28;20067;-49
2023/07/20 11:41:54;;;;;;;0.45;0.40;;;25.80;43.50;;;;;;5050610;28;20041;-52
2023/07/20 11:44:26;;;;;;;0.55;0.43;;;25.80;43.50;;;;;;5049127;28;20047;-49
2023/07/20 11:47:05;;;;;;;0.60;0.57;;;25.90;43.00;;;;;;5059222;28;20120;-50
2023/07/20 11:49:37;;;;;;;1.13;0.57;;;25.90;42.60;;;;;;5062098;28;20047;-51
2023/07/20 11:52:07;;;;;;;0.40;0.38;;;25.90;41.70;;;;;;5053835;28;20045;-51
2023/07/20 11:54:38;;;;;;;0.60;0.55;;;26.00;41.30;;;;;;5040191;28;20082;-48
2023/07/20 11:57:06;;;;;;;1.20;0.50;;;26.00;40.90;;;;;;5054379;28;20033;-51
2023/07/20 11:59:33;;;;;;;0.55;0.30;;;26.10;41.00;;;;;;5053504;28;20045;-48
2023/07/20 12:02:03;;;;;;;0.55;0.40;;;26.20;40.90;;;;;;5050965;28;20515;-51
2023/07/20 12:04:32;;;;;;;0.50;0.35;;;26.30;40.40;;;;;;5046813;28;20037;-51
2023/07/20 12:06:59;;;;;;;0.50;0.40;;;26.30;40.50;;;;;;5058462;28;20514;-48
2023/07/20 12:09:26;;;;;;;0.55;0.43;;;26.40;40.90;;;;;;5057174;28;20057;-48
2023/07/20 12:12:12;;;;;;;1.20;0.30;;;26.50;40.90;;;;;;5057797;28;20052;-49
2023/07/20 12:14:38;;;;;;;0.47;0.47;;;26.60;39.90;;;;;;5055391;28;20722;-47
2023/07/20 12:17:08;;;;;;;0.50;0.50;;;26.70;40.50;;;;;;5051099;28;20082;-49
2023/07/20 12:19:40;;;;;;;1.38;0.50;;;26.90;40.10;;;;;;5054380;28;20067;-48
2023/07/20 12:22:06;;;;;;;1.20;0.55;;;27.00;39.80;;;;;;5054375;28;20095;-51
2023/07/20 12:24:33;;;;;;;0.40;0.40;;;27.20;39.40;;;;;;5050413;28;20433;-48
2023/07/20 12:27:00;;;;;;;1.02;0.40;;;27.20;39.10;;;;;;5049912;28;20044;-49
2023/07/20 12:29:27;;;;;;;1.20;0.70;;;27.20;39.20;;;;;;5048017;28;20055;-48
2023/07/20 12:31:53;;;;;;;0.80;0.70;;;27.20;39.50;;;;;;5057182;28;20394;-51
2023/07/20 12:34:20;;;;;;;0.80;0.50;;;27.30;39.00;;;;;;5055420;28;20048;-52
2023/07/20 12:36:47;;;;;;;13.82;2.05;;;27.30;38.70;;;;;;5058525;28;20041;-52
2023/07/20 12:39:14;;;;;;;0.55;0.50;;;27.40;37.50;;;;;;5054043;28;20065;-47
2023/07/20 12:41:40;;;;;;;1.10;0.75;;;27.40;36.90;;;;;;5062890;28;20461;-51
2023/07/20 12:44:07;;;;;;;0.50;0.50;;;27.40;36.90;;;;;;5053844;28;20029;-52
2023/07/20 12:46:37;;;;;;;9.32;1.40;;;27.50;37.30;;;;;;5054249;28;20072;-49
2023/07/20 12:49:04;;;;;;;17.90;2.75;;;27.50;37.70;;;;;;5041224;28;20071;-51
2023/07/20 12:51:30;;;;;;;66.05;9.18;;;27.50;38.00;;;;;;5061521;28;20047;-51
2023/07/20 12:53:57;;;;;;;3.03;0.60;;;27.50;38.20;;;;;;5060457;28;20106;-51
2023/07/20 12:56:24;;;;;;;0.85;0.43;;;27.50;38.40;;;;;;5061098;28;20076;-52
2023/07/20 12:58:53;;;;;;;2.92;0.68;;;27.60;38.20;;;;;;5039743;28;20033;-51